sensor_id;sensor_type;location;lat;lon;timestamp;temperature;humidity
13798;DHT22;6970;51.340;3.240;2023-06-26T00:00:32;21.60;99.90
13798;DHT22;6970;51.340;3.240;2023-06-26T00:03:02;21.60;99.90
13798;DHT22;6970;51.340;3.240;2023-06-26T00:05:30;21.50;99.90
13798;DHT22;6970;51.340;3.240;2023-06-26T00:08:00;21.40;99.90
13798;DHT22;6970;51.340;3.240;2023-06-26T00:10:27;21.30;99.90
13798;DHT22;6970;51.340;3.240;2023-06-26T00:12:55;21.20;99.90
13798;DHT22;6970;51.340;3.240;2023-06-26T00:15:24;21.20;99.90
13798;DHT22;6970;51.340;3.240;2023-06-26T00:17:53;21.20;99.90
13798;DHT22;6970;51.340;3.240;2023-06-26T00:20:23;21.20;99.90
13798;DHT22;6970;51.340;3.240;2023-06-26T00:22:54;21.20;99.90
13798;DHT22;6970;51.340;3.240;2023-06-26T00:25:25;21.20;99.90
13798;DHT22;6970;51.340;3.240;2023-06-26T00:27:52;21.20;99.90
13798;DHT22;6970;51.340;3.240;2023-06-26T00:30:22;21.20;99.90
13798;DHT22;6970;51.340;3.240;2023-06-26T00:32:52;21.20;99.90
13798;DHT22;6970;51.340;3.240;2023-06-26T00:35:20;21.10;99.90
13798;DHT22;6970;51.340;3.240;2023-06-26T00:37:47;21.10;99.90
13798;DHT22;6970;51.340;3.240;2023-06-26T00:40:14;21.10;99.90
13798;DHT22;6970;51.340;3.240;2023-06-26T00:42:44;21.10;99.90
13798;DHT22;6970;51.340;3.240;2023-06-26T00:45:11;21.10;99.90
13798;DHT22;6970;51.340;3.240;2023-06-26T00:47:41;21.10;99.90
13798;DHT22;6970;51.340;3.240;2023-06-26T00:50:09;21.10;99.90
13798;DHT22;6970;51.340;3.240;2023-06-26T00:52:37;21.10;99.90
13798;DHT22;6970;51.340;3.240;2023-06-26T00:55:05;21.10;99.90
13798;DHT22;6970;51.340;3.240;2023-06-26T00:57:34;21.10;99.90
13798;DHT22;6970;51.340;3.240;2023-06-26T01:00:04;21.10;99.90
13798;DHT22;6970;51.340;3.240;2023-06-26T01:02:34;21.10;99.90
13798;DHT22;6970;51.340;3.240;2023-06-26T01:05:04;21.10;99.90
13798;DHT22;6970;51.340;3.240;2023-06-26T01:07:34;21.00;99.90
13798;DHT22;6970;51.340;3.240;2023-06-26T01:10:06;21.00;99.90
13798;DHT22;6970;51.340;3.240;2023-06-26T01:12:34;21.00;99.90
13798;DHT22;6970;51.340;3.240;2023-06-26T01:15:05;20.90;99.90
13798;DHT22;6970;51.340;3.240;2023-06-26T01:17:36;20.90;99.90
13798;DHT22;6970;51.340;3.240;2023-06-26T01:20:06;20.90;99.90
13798;DHT22;6970;51.340;3.240;2023-06-26T01:22:53;20.80;99.90
13798;DHT22;6970;51.340;3.240;2023-06-26T01:28:19;20.70;99.90
13798;DHT22;6970;51.340;3.240;2023-06-26T01:30:54;20.60;99.90
13798;DHT22;6970;51.340;3.240;2023-06-26T01:33:24;20.60;99.90
13798;DHT22;6970;51.340;3.240;2023-06-26T01:35:55;20.60;99.90
13798;DHT22;6970;51.340;3.240;2023-06-26T01:38:25;20.50;99.90
13798;DHT22;6970;51.340;3.240;2023-06-26T01:40:59;20.50;99.90
13798;DHT22;6970;51.340;3.240;2023-06-26T01:46:45;20.50;99.90
13798;DHT22;6970;51.340;3.240;2023-06-26T01:49:44;20.50;99.90
13798;DHT22;6970;51.340;3.240;2023-06-26T01:57:53;20.50;99.90
13798;DHT22;6970;51.340;3.240;2023-06-26T02:00:23;20.50;99.90
13798;DHT22;6970;51.340;3.240;2023-06-26T02:02:51;20.50;99.90
13798;DHT22;6970;51.340;3.240;2023-06-26T02:05:20;20.50;99.90
13798;DHT22;6970;51.340;3.240;2023-06-26T02:07:50;20.50;99.90
13798;DHT22;6970;51.340;3.240;2023-06-26T02:10:19;20.40;99.90
13798;DHT22;6970;51.340;3.240;2023-06-26T02:12:46;20.40;99.90
13798;DHT22;6970;51.340;3.240;2023-06-26T02:15:16;20.50;99.90
13798;DHT22;6970;51.340;3.240;2023-06-26T02:17:46;20.40;99.90
13798;DHT22;6970;51.340;3.240;2023-06-26T02:20:21;20.40;99.90
13798;DHT22;6970;51.340;3.240;2023-06-26T02:22:51;20.40;99.90
13798;DHT22;6970;51.340;3.240;2023-06-26T02:25:19;20.40;99.90
13798;DHT22;6970;51.340;3.240;2023-06-26T02:27:48;20.40;99.90
13798;DHT22;6970;51.340;3.240;2023-06-26T02:30:18;20.30;99.90
13798;DHT22;6970;51.340;3.240;2023-06-26T02:32:46;20.30;99.90
13798;DHT22;6970;51.340;3.240;2023-06-26T02:35:16;20.20;99.90
13798;DHT22;6970;51.340;3.240;2023-06-26T02:37:43;20.20;99.90
13798;DHT22;6970;51.340;3.240;2023-06-26T02:40:12;20.10;99.90
13798;DHT22;6970;51.340;3.240;2023-06-26T02:42:42;20.10;99.90
13798;DHT22;6970;51.340;3.240;2023-06-26T02:45:09;20.10;99.90
13798;DHT22;6970;51.340;3.240;2023-06-26T02:47:36;20.10;99.90
13798;DHT22;6970;51.340;3.240;2023-06-26T02:50:09;20.10;99.90
13798;DHT22;6970;51.340;3.240;2023-06-26T02:52:37;20.10;99.90
13798;DHT22;6970;51.340;3.240;2023-06-26T02:55:07;20.00;99.90
13798;DHT22;6970;51.340;3.240;2023-06-26T02:57:36;20.00;99.90
13798;DHT22;6970;51.340;3.240;2023-06-26T03:00:05;20.00;99.90
13798;DHT22;6970;51.340;3.240;2023-06-26T03:02:38;20.00;99.90
13798;DHT22;6970;51.340;3.240;2023-06-26T03:05:05;20.00;99.90
13798;DHT22;6970;51.340;3.240;2023-06-26T03:07:35;20.00;99.90
13798;DHT22;6970;51.340;3.240;2023-06-26T03:10:02;19.90;99.90
13798;DHT22;6970;51.340;3.240;2023-06-26T03:12:30;19.90;99.90
13798;DHT22;6970;51.340;3.240;2023-06-26T03:14:59;19.90;99.90
13798;DHT22;6970;51.340;3.240;2023-06-26T03:17:36;19.80;99.90
13798;DHT22;6970;51.340;3.240;2023-06-26T03:20:04;19.80;99.90
13798;DHT22;6970;51.340;3.240;2023-06-26T03:22:37;19.80;99.90
13798;DHT22;6970;51.340;3.240;2023-06-26T03:25:07;19.80;99.90
13798;DHT22;6970;51.340;3.240;2023-06-26T03:27:37;19.80;99.90
13798;DHT22;6970;51.340;3.240;2023-06-26T03:30:06;19.80;99.90
13798;DHT22;6970;51.340;3.240;2023-06-26T03:32:34;19.80;99.90
13798;DHT22;6970;51.340;3.240;2023-06-26T03:35:04;19.70;99.90
13798;DHT22;6970;51.340;3.240;2023-06-26T03:37:34;19.70;99.90
13798;DHT22;6970;51.340;3.240;2023-06-26T03:40:01;19.70;99.90
13798;DHT22;6970;51.340;3.240;2023-06-26T03:42:31;19.70;99.90
13798;DHT22;6970;51.340;3.240;2023-06-26T03:45:01;19.70;99.90
13798;DHT22;6970;51.340;3.240;2023-06-26T03:47:28;19.70;99.90
13798;DHT22;6970;51.340;3.240;2023-06-26T03:49:56;19.70;99.90
13798;DHT22;6970;51.340;3.240;2023-06-26T03:52:27;19.70;99.90
13798;DHT22;6970;51.340;3.240;2023-06-26T03:54:59;19.70;99.90
13798;DHT22;6970;51.340;3.240;2023-06-26T03:57:26;19.70;99.90
13798;DHT22;6970;51.340;3.240;2023-06-26T03:59:57;19.70;99.90
13798;DHT22;6970;51.340;3.240;2023-06-26T04:02:28;19.70;99.90
13798;DHT22;6970;51.340;3.240;2023-06-26T04:04:58;19.70;99.90
13798;DHT22;6970;51.340;3.240;2023-06-26T04:07:25;19.70;99.90
13798;DHT22;6970;51.340;3.240;2023-06-26T04:09:53;19.70;99.90
13798;DHT22;6970;51.340;3.240;2023-06-26T04:12:22;19.70;99.90
13798;DHT22;6970;51.340;3.240;2023-06-26T04:14:52;19.70;99.90
13798;DHT22;6970;51.340;3.240;2023-06-26T04:17:22;19.70;99.90
13798;DHT22;6970;51.340;3.240;2023-06-26T04:19:49;19.70;99.90
13798;DHT22;6970;51.340;3.240;2023-06-26T04:22:19;19.70;99.90
13798;DHT22;6970;51.340;3.240;2023-06-26T04:24:48;19.70;99.90
13798;DHT22;6970;51.340;3.240;2023-06-26T04:27:30;19.70;99.90
13798;DHT22;6970;51.340;3.240;2023-06-26T04:29:57;19.80;99.90
13798;DHT22;6970;51.340;3.240;2023-06-26T04:32:26;19.80;99.90
13798;DHT22;6970;51.340;3.240;2023-06-26T04:34:55;19.70;99.90
13798;DHT22;6970;51.340;3.240;2023-06-26T04:37:26;19.70;99.90
13798;DHT22;6970;51.340;3.240;2023-06-26T04:39:54;19.60;99.90
13798;DHT22;6970;51.340;3.240;2023-06-26T04:42:22;19.60;99.90
13798;DHT22;6970;51.340;3.240;2023-06-26T04:44:50;19.60;99.90
13798;DHT22;6970;51.340;3.240;2023-06-26T04:47:17;19.60;99.90
13798;DHT22;6970;51.340;3.240;2023-06-26T04:49:44;19.60;99.90
13798;DHT22;6970;51.340;3.240;2023-06-26T04:52:15;19.60;99.90
13798;DHT22;6970;51.340;3.240;2023-06-26T04:54:43;19.60;99.90
13798;DHT22;6970;51.340;3.240;2023-06-26T04:57:13;19.60;99.90
13798;DHT22;6970;51.340;3.240;2023-06-26T04:59:42;19.70;99.90
13798;DHT22;6970;51.340;3.240;2023-06-26T05:02:09;19.70;99.90
13798;DHT22;6970;51.340;3.240;2023-06-26T05:04:39;19.70;99.90
13798;DHT22;6970;51.340;3.240;2023-06-26T05:07:10;19.80;99.90
13798;DHT22;6970;51.340;3.240;2023-06-26T05:09:37;19.70;99.90
13798;DHT22;6970;51.340;3.240;2023-06-26T05:12:04;19.70;99.90
13798;DHT22;6970;51.340;3.240;2023-06-26T05:14:33;19.70;99.90
13798;DHT22;6970;51.340;3.240;2023-06-26T05:17:01;19.70;99.90
13798;DHT22;6970;51.340;3.240;2023-06-26T05:19:28;19.70;99.90
13798;DHT22;6970;51.340;3.240;2023-06-26T05:21:56;19.70;99.90
13798;DHT22;6970;51.340;3.240;2023-06-26T05:24:26;19.70;99.90
13798;DHT22;6970;51.340;3.240;2023-06-26T05:26:53;19.70;99.90
13798;DHT22;6970;51.340;3.240;2023-06-26T05:29:22;19.70;99.90
13798;DHT22;6970;51.340;3.240;2023-06-26T05:31:53;19.70;99.90
13798;DHT22;6970;51.340;3.240;2023-06-26T05:34:23;19.80;99.90
13798;DHT22;6970;51.340;3.240;2023-06-26T05:36:51;19.80;99.90
13798;DHT22;6970;51.340;3.240;2023-06-26T05:39:19;19.80;99.90
13798;DHT22;6970;51.340;3.240;2023-06-26T05:41:50;19.80;99.90
13798;DHT22;6970;51.340;3.240;2023-06-26T05:44:17;19.80;99.90
13798;DHT22;6970;51.340;3.240;2023-06-26T05:46:46;19.80;99.90
13798;DHT22;6970;51.340;3.240;2023-06-26T05:49:14;19.90;99.90
13798;DHT22;6970;51.340;3.240;2023-06-26T05:51:45;19.90;99.90
13798;DHT22;6970;51.340;3.240;2023-06-26T05:54:14;19.90;99.90
13798;DHT22;6970;51.340;3.240;2023-06-26T05:56:42;19.80;99.90
13798;DHT22;6970;51.340;3.240;2023-06-26T05:59:12;19.80;99.90
13798;DHT22;6970;51.340;3.240;2023-06-26T06:01:42;19.70;99.90
13798;DHT22;6970;51.340;3.240;2023-06-26T06:04:09;19.60;99.90
13798;DHT22;6970;51.340;3.240;2023-06-26T06:06:39;19.60;99.90
13798;DHT22;6970;51.340;3.240;2023-06-26T06:09:06;19.60;99.90
13798;DHT22;6970;51.340;3.240;2023-06-26T06:11:35;19.60;99.90
13798;DHT22;6970;51.340;3.240;2023-06-26T06:14:04;19.60;99.90
13798;DHT22;6970;51.340;3.240;2023-06-26T06:16:31;19.60;99.90
13798;DHT22;6970;51.340;3.240;2023-06-26T06:19:01;19.60;99.90
13798;DHT22;6970;51.340;3.240;2023-06-26T06:21:32;19.60;99.90
13798;DHT22;6970;51.340;3.240;2023-06-26T06:23:59;19.70;99.90
13798;DHT22;6970;51.340;3.240;2023-06-26T06:26:31;19.70;99.90
13798;DHT22;6970;51.340;3.240;2023-06-26T06:29:00;19.80;99.90
13798;DHT22;6970;51.340;3.240;2023-06-26T06:31:27;19.90;99.90
13798;DHT22;6970;51.340;3.240;2023-06-26T06:33:59;19.90;99.90
13798;DHT22;6970;51.340;3.240;2023-06-26T06:36:29;20.00;99.90
13798;DHT22;6970;51.340;3.240;2023-06-26T06:38:59;20.20;99.90
13798;DHT22;6970;51.340;3.240;2023-06-26T06:41:29;20.30;99.90
13798;DHT22;6970;51.340;3.240;2023-06-26T06:43:58;20.30;99.90
13798;DHT22;6970;51.340;3.240;2023-06-26T06:46:25;20.40;99.90
13798;DHT22;6970;51.340;3.240;2023-06-26T06:48:56;20.50;99.90
13798;DHT22;6970;51.340;3.240;2023-06-26T06:51:29;20.60;99.90
13798;DHT22;6970;51.340;3.240;2023-06-26T06:53:57;20.80;99.90
13798;DHT22;6970;51.340;3.240;2023-06-26T06:56:24;20.90;99.90
13798;DHT22;6970;51.340;3.240;2023-06-26T06:58:54;21.10;99.90
13798;DHT22;6970;51.340;3.240;2023-06-26T07:01:23;21.30;99.90
13798;DHT22;6970;51.340;3.240;2023-06-26T07:03:51;21.40;99.90
13798;DHT22;6970;51.340;3.240;2023-06-26T07:06:21;21.50;99.90
13798;DHT22;6970;51.340;3.240;2023-06-26T07:08:49;21.60;99.90
13798;DHT22;6970;51.340;3.240;2023-06-26T07:11:17;21.70;99.90
13798;DHT22;6970;51.340;3.240;2023-06-26T07:13:44;21.80;99.90
13798;DHT22;6970;51.340;3.240;2023-06-26T07:16:14;21.80;99.90
13798;DHT22;6970;51.340;3.240;2023-06-26T07:18:42;21.80;99.90
13798;DHT22;6970;51.340;3.240;2023-06-26T07:21:12;21.80;99.90
13798;DHT22;6970;51.340;3.240;2023-06-26T07:23:39;21.90;99.90
13798;DHT22;6970;51.340;3.240;2023-06-26T07:26:07;22.00;99.90
13798;DHT22;6970;51.340;3.240;2023-06-26T07:28:36;22.00;99.90
13798;DHT22;6970;51.340;3.240;2023-06-26T07:31:04;22.30;99.90
13798;DHT22;6970;51.340;3.240;2023-06-26T07:33:33;22.40;99.90
13798;DHT22;6970;51.340;3.240;2023-06-26T07:36:00;22.50;99.30
13798;DHT22;6970;51.340;3.240;2023-06-26T07:38:28;22.70;99.50
13798;DHT22;6970;51.340;3.240;2023-06-26T07:40:59;22.90;98.60
13798;DHT22;6970;51.340;3.240;2023-06-26T07:43:26;23.00;98.60
13798;DHT22;6970;51.340;3.240;2023-06-26T07:45:56;23.10;98.10
13798;DHT22;6970;51.340;3.240;2023-06-26T07:48:28;23.20;98.40
13798;DHT22;6970;51.340;3.240;2023-06-26T07:50:55;23.30;98.10
13798;DHT22;6970;51.340;3.240;2023-06-26T07:53:22;23.50;97.80
13798;DHT22;6970;51.340;3.240;2023-06-26T07:55:52;23.40;97.70
13798;DHT22;6970;51.340;3.240;2023-06-26T07:58:19;23.60;97.90
13798;DHT22;6970;51.340;3.240;2023-06-26T08:00:46;23.60;98.00
13798;DHT22;6970;51.340;3.240;2023-06-26T08:03:14;23.50;98.00
13798;DHT22;6970;51.340;3.240;2023-06-26T08:06:03;23.50;98.10
13798;DHT22;6970;51.340;3.240;2023-06-26T08:08:30;23.60;98.10
13798;DHT22;6970;51.340;3.240;2023-06-26T08:10:58;23.90;97.70
13798;DHT22;6970;51.340;3.240;2023-06-26T08:13:25;24.00;97.30
13798;DHT22;6970;51.340;3.240;2023-06-26T08:15:55;24.20;96.90
13798;DHT22;6970;51.340;3.240;2023-06-26T08:18:25;24.30;96.80
13798;DHT22;6970;51.340;3.240;2023-06-26T08:20:54;24.30;96.50
13798;DHT22;6970;51.340;3.240;2023-06-26T08:23:21;24.40;96.60
13798;DHT22;6970;51.340;3.240;2023-06-26T08:25:55;24.40;96.30
13798;DHT22;6970;51.340;3.240;2023-06-26T08:28:28;24.50;96.40
13798;DHT22;6970;51.340;3.240;2023-06-26T08:30:58;24.40;96.20
13798;DHT22;6970;51.340;3.240;2023-06-26T08:33:28;24.50;96.20
13798;DHT22;6970;51.340;3.240;2023-06-26T08:35:56;24.50;96.50
13798;DHT22;6970;51.340;3.240;2023-06-26T08:38:26;24.70;96.20
13798;DHT22;6970;51.340;3.240;2023-06-26T08:40:56;24.80;95.70
13798;DHT22;6970;51.340;3.240;2023-06-26T08:43:27;24.70;95.80
13798;DHT22;6970;51.340;3.240;2023-06-26T08:46:02;24.90;95.50
13798;DHT22;6970;51.340;3.240;2023-06-26T08:48:33;25.00;95.70
13798;DHT22;6970;51.340;3.240;2023-06-26T08:51:11;25.00;95.50
13798;DHT22;6970;51.340;3.240;2023-06-26T08:53:58;25.00;95.90
13798;DHT22;6970;51.340;3.240;2023-06-26T08:56:46;25.10;95.60
13798;DHT22;6970;51.340;3.240;2023-06-26T08:59:15;25.10;95.50
13798;DHT22;6970;51.340;3.240;2023-06-26T09:01:43;25.30;95.50
13798;DHT22;6970;51.340;3.240;2023-06-26T09:04:10;25.40;95.10
13798;DHT22;6970;51.340;3.240;2023-06-26T09:06:41;25.70;95.10
13798;DHT22;6970;51.340;3.240;2023-06-26T09:09:27;25.70;94.60
13798;DHT22;6970;51.340;3.240;2023-06-26T09:11:58;25.70;94.50
13798;DHT22;6970;51.340;3.240;2023-06-26T09:14:25;25.80;94.20
13798;DHT22;6970;51.340;3.240;2023-06-26T09:16:55;25.90;94.40
13798;DHT22;6970;51.340;3.240;2023-06-26T09:19:24;26.10;94.10
13798;DHT22;6970;51.340;3.240;2023-06-26T09:22:13;26.30;93.70
13798;DHT22;6970;51.340;3.240;2023-06-26T09:24:44;26.40;93.70
13798;DHT22;6970;51.340;3.240;2023-06-26T09:27:12;26.50;93.60
13798;DHT22;6970;51.340;3.240;2023-06-26T09:29:44;26.60;93.30
13798;DHT22;6970;51.340;3.240;2023-06-26T09:32:13;26.60;93.20
13798;DHT22;6970;51.340;3.240;2023-06-26T09:34:43;26.80;93.20
13798;DHT22;6970;51.340;3.240;2023-06-26T09:37:13;26.90;93.00
13798;DHT22;6970;51.340;3.240;2023-06-26T09:39:44;27.00;92.80
13798;DHT22;6970;51.340;3.240;2023-06-26T09:42:13;27.20;92.90
13798;DHT22;6970;51.340;3.240;2023-06-26T09:44:47;27.40;92.70
13798;DHT22;6970;51.340;3.240;2023-06-26T09:47:21;27.40;92.10
13798;DHT22;6970;51.340;3.240;2023-06-26T09:49:52;27.40;92.10
13798;DHT22;6970;51.340;3.240;2023-06-26T09:52:21;27.30;91.80
13798;DHT22;6970;51.340;3.240;2023-06-26T09:55:09;27.30;92.00
13798;DHT22;6970;51.340;3.240;2023-06-26T09:57:38;27.50;92.00
13798;DHT22;6970;51.340;3.240;2023-06-26T10:00:07;27.70;91.80
13798;DHT22;6970;51.340;3.240;2023-06-26T10:02:36;27.70;91.60
13798;DHT22;6970;51.340;3.240;2023-06-26T10:05:03;27.70;91.20
13798;DHT22;6970;51.340;3.240;2023-06-26T10:07:31;27.70;91.70
13798;DHT22;6970;51.340;3.240;2023-06-26T10:10:02;27.90;91.20
13798;DHT22;6970;51.340;3.240;2023-06-26T10:12:34;28.10;91.30
13798;DHT22;6970;51.340;3.240;2023-06-26T10:15:02;28.20;90.90
13798;DHT22;6970;51.340;3.240;2023-06-26T10:17:35;28.20;90.70
13798;DHT22;6970;51.340;3.240;2023-06-26T10:20:09;28.40;90.50
13798;DHT22;6970;51.340;3.240;2023-06-26T10:22:49;28.40;90.20
13798;DHT22;6970;51.340;3.240;2023-06-26T10:25:21;28.50;90.30
13798;DHT22;6970;51.340;3.240;2023-06-26T10:27:57;28.60;90.30
13798;DHT22;6970;51.340;3.240;2023-06-26T10:30:29;28.70;90.10
13798;DHT22;6970;51.340;3.240;2023-06-26T10:32:59;28.80;89.80
13798;DHT22;6970;51.340;3.240;2023-06-26T10:35:26;29.10;89.50
13798;DHT22;6970;51.340;3.240;2023-06-26T10:38:01;29.20;89.00
13798;DHT22;6970;51.340;3.240;2023-06-26T10:40:41;29.30;87.80
13798;DHT22;6970;51.340;3.240;2023-06-26T10:43:15;29.40;87.90
13798;DHT22;6970;51.340;3.240;2023-06-26T10:45:49;29.60;87.30
13798;DHT22;6970;51.340;3.240;2023-06-26T10:48:21;29.60;86.80
13798;DHT22;6970;51.340;3.240;2023-06-26T10:50:52;29.40;87.00
13798;DHT22;6970;51.340;3.240;2023-06-26T10:53:24;29.20;87.00
13798;DHT22;6970;51.340;3.240;2023-06-26T10:56:04;29.20;87.50
13798;DHT22;6970;51.340;3.240;2023-06-26T10:58:42;29.20;87.10
13798;DHT22;6970;51.340;3.240;2023-06-26T11:04:00;29.20;87.20
13798;DHT22;6970;51.340;3.240;2023-06-26T11:06:33;29.10;87.50
13798;DHT22;6970;51.340;3.240;2023-06-26T11:14:24;29.10;87.50
13798;DHT22;6970;51.340;3.240;2023-06-26T11:16:55;29.10;88.00
13798;DHT22;6970;51.340;3.240;2023-06-26T11:19:27;28.90;87.30
13798;DHT22;6970;51.340;3.240;2023-06-26T11:22:05;28.70;88.30
13798;DHT22;6970;51.340;3.240;2023-06-26T11:24:34;28.70;88.00
13798;DHT22;6970;51.340;3.240;2023-06-26T11:27:05;28.90;87.10
13798;DHT22;6970;51.340;3.240;2023-06-26T11:29:33;28.90;87.90
13798;DHT22;6970;51.340;3.240;2023-06-26T11:32:02;29.10;87.70
13798;DHT22;6970;51.340;3.240;2023-06-26T11:34:34;29.10;86.90
13798;DHT22;6970;51.340;3.240;2023-06-26T11:37:02;29.00;87.00
13798;DHT22;6970;51.340;3.240;2023-06-26T11:39:29;28.90;87.20
13798;DHT22;6970;51.340;3.240;2023-06-26T11:42:00;28.90;87.30
13798;DHT22;6970;51.340;3.240;2023-06-26T11:44:31;29.00;87.40
13798;DHT22;6970;51.340;3.240;2023-06-26T11:46:59;29.10;87.40
13798;DHT22;6970;51.340;3.240;2023-06-26T11:49:30;29.10;87.50
13798;DHT22;6970;51.340;3.240;2023-06-26T11:52:02;29.30;86.80
13798;DHT22;6970;51.340;3.240;2023-06-26T11:54:33;29.20;86.80
13798;DHT22;6970;51.340;3.240;2023-06-26T11:57:02;29.20;86.60
13798;DHT22;6970;51.340;3.240;2023-06-26T11:59:40;29.40;85.90
13798;DHT22;6970;51.340;3.240;2023-06-26T12:02:10;29.40;85.30
13798;DHT22;6970;51.340;3.240;2023-06-26T12:04:43;29.30;85.70
13798;DHT22;6970;51.340;3.240;2023-06-26T12:07:12;29.10;85.50
13798;DHT22;6970;51.340;3.240;2023-06-26T12:09:45;29.00;86.00
13798;DHT22;6970;51.340;3.240;2023-06-26T12:12:16;28.90;86.80
13798;DHT22;6970;51.340;3.240;2023-06-26T12:14:47;28.80;87.30
13798;DHT22;6970;51.340;3.240;2023-06-26T12:17:15;28.90;85.90
13798;DHT22;6970;51.340;3.240;2023-06-26T12:19:46;28.90;86.50
13798;DHT22;6970;51.340;3.240;2023-06-26T12:22:17;28.90;85.80
13798;DHT22;6970;51.340;3.240;2023-06-26T12:24:46;28.90;85.40
13798;DHT22;6970;51.340;3.240;2023-06-26T12:27:18;28.80;85.00
13798;DHT22;6970;51.340;3.240;2023-06-26T12:29:53;28.70;85.80
13798;DHT22;6970;51.340;3.240;2023-06-26T12:32:27;28.70;86.10
13798;DHT22;6970;51.340;3.240;2023-06-26T12:34:58;28.70;86.70
13798;DHT22;6970;51.340;3.240;2023-06-26T12:37:27;28.60;86.00
13798;DHT22;6970;51.340;3.240;2023-06-26T12:39:57;28.70;85.60
13798;DHT22;6970;51.340;3.240;2023-06-26T12:42:28;28.70;85.80
13798;DHT22;6970;51.340;3.240;2023-06-26T12:44:56;28.60;86.60
13798;DHT22;6970;51.340;3.240;2023-06-26T12:47:28;28.60;86.50
13798;DHT22;6970;51.340;3.240;2023-06-26T12:50:04;28.60;86.50
13798;DHT22;6970;51.340;3.240;2023-06-26T12:52:32;28.50;87.40
13798;DHT22;6970;51.340;3.240;2023-06-26T12:54:59;28.60;87.20
13798;DHT22;6970;51.340;3.240;2023-06-26T12:57:29;28.40;87.40
13798;DHT22;6970;51.340;3.240;2023-06-26T12:59:59;28.40;87.40
13798;DHT22;6970;51.340;3.240;2023-06-26T13:02:39;28.40;87.60
13798;DHT22;6970;51.340;3.240;2023-06-26T13:05:12;28.30;87.30
13798;DHT22;6970;51.340;3.240;2023-06-26T13:07:40;28.30;87.40
13798;DHT22;6970;51.340;3.240;2023-06-26T13:10:07;28.40;86.90
13798;DHT22;6970;51.340;3.240;2023-06-26T13:12:38;28.40;87.30
13798;DHT22;6970;51.340;3.240;2023-06-26T13:15:09;28.20;87.30
13798;DHT22;6970;51.340;3.240;2023-06-26T13:17:38;28.30;87.30
13798;DHT22;6970;51.340;3.240;2023-06-26T13:20:06;28.50;87.20
13798;DHT22;6970;51.340;3.240;2023-06-26T13:22:38;28.50;86.80
13798;DHT22;6970;51.340;3.240;2023-06-26T13:25:06;28.40;86.20
13798;DHT22;6970;51.340;3.240;2023-06-26T13:27:35;28.40;86.40
13798;DHT22;6970;51.340;3.240;2023-06-26T13:30:04;28.40;86.20
13798;DHT22;6970;51.340;3.240;2023-06-26T13:32:31;28.40;86.40
13798;DHT22;6970;51.340;3.240;2023-06-26T13:35:01;28.60;85.60
13798;DHT22;6970;51.340;3.240;2023-06-26T13:37:31;28.70;85.50
13798;DHT22;6970;51.340;3.240;2023-06-26T13:40:05;28.80;85.50
13798;DHT22;6970;51.340;3.240;2023-06-26T13:42:37;28.80;85.00
13798;DHT22;6970;51.340;3.240;2023-06-26T13:45:08;28.70;84.90
13798;DHT22;6970;51.340;3.240;2023-06-26T13:47:56;28.70;84.70
13798;DHT22;6970;51.340;3.240;2023-06-26T13:50:24;28.70;83.80
13798;DHT22;6970;51.340;3.240;2023-06-26T13:52:56;28.80;83.80
13798;DHT22;6970;51.340;3.240;2023-06-26T13:55:26;28.50;84.90
13798;DHT22;6970;51.340;3.240;2023-06-26T13:57:54;28.60;85.50
13798;DHT22;6970;51.340;3.240;2023-06-26T14:00:22;28.40;85.20
13798;DHT22;6970;51.340;3.240;2023-06-26T14:02:51;28.30;85.80
13798;DHT22;6970;51.340;3.240;2023-06-26T14:05:18;28.30;85.40
13798;DHT22;6970;51.340;3.240;2023-06-26T14:07:59;28.20;84.20
13798;DHT22;6970;51.340;3.240;2023-06-26T14:10:26;28.20;84.30
13798;DHT22;6970;51.340;3.240;2023-06-26T14:12:53;28.20;83.80
13798;DHT22;6970;51.340;3.240;2023-06-26T14:15:20;28.20;84.60
13798;DHT22;6970;51.340;3.240;2023-06-26T14:17:48;28.30;85.60
13798;DHT22;6970;51.340;3.240;2023-06-26T14:20:17;28.30;85.90
13798;DHT22;6970;51.340;3.240;2023-06-26T14:22:45;28.20;85.90
13798;DHT22;6970;51.340;3.240;2023-06-26T14:25:13;28.10;86.30
13798;DHT22;6970;51.340;3.240;2023-06-26T14:27:41;27.90;86.20
13798;DHT22;6970;51.340;3.240;2023-06-26T14:30:09;27.70;86.30
13798;DHT22;6970;51.340;3.240;2023-06-26T14:32:40;27.60;86.30
13798;DHT22;6970;51.340;3.240;2023-06-26T14:35:07;27.40;87.10
13798;DHT22;6970;51.340;3.240;2023-06-26T14:37:36;27.20;88.20
13798;DHT22;6970;51.340;3.240;2023-06-26T14:40:07;27.00;88.70
13798;DHT22;6970;51.340;3.240;2023-06-26T14:42:36;27.00;88.50
13798;DHT22;6970;51.340;3.240;2023-06-26T14:45:05;26.90;88.60
13798;DHT22;6970;51.340;3.240;2023-06-26T14:47:33;26.80;88.90
13798;DHT22;6970;51.340;3.240;2023-06-26T14:50:00;26.80;88.70
13798;DHT22;6970;51.340;3.240;2023-06-26T14:52:27;26.80;88.50
13798;DHT22;6970;51.340;3.240;2023-06-26T14:54:55;26.60;89.00
13798;DHT22;6970;51.340;3.240;2023-06-26T14:57:22;26.60;89.30
13798;DHT22;6970;51.340;3.240;2023-06-26T14:59:50;26.50;90.00
13798;DHT22;6970;51.340;3.240;2023-06-26T15:02:18;26.40;89.70
13798;DHT22;6970;51.340;3.240;2023-06-26T15:04:45;26.40;89.70
13798;DHT22;6970;51.340;3.240;2023-06-26T15:07:12;26.50;89.90
13798;DHT22;6970;51.340;3.240;2023-06-26T15:09:40;26.60;90.00
13798;DHT22;6970;51.340;3.240;2023-06-26T15:12:07;26.70;90.00
13798;DHT22;6970;51.340;3.240;2023-06-26T15:14:35;26.60;89.40
13798;DHT22;6970;51.340;3.240;2023-06-26T15:17:03;26.50;89.50
13798;DHT22;6970;51.340;3.240;2023-06-26T15:19:33;26.50;89.90
13798;DHT22;6970;51.340;3.240;2023-06-26T15:22:00;26.40;90.00
13798;DHT22;6970;51.340;3.240;2023-06-26T15:24:27;26.30;90.10
13798;DHT22;6970;51.340;3.240;2023-06-26T15:26:54;26.20;90.10
13798;DHT22;6970;51.340;3.240;2023-06-26T15:29:21;26.00;90.10
13798;DHT22;6970;51.340;3.240;2023-06-26T15:31:48;26.00;90.30
13798;DHT22;6970;51.340;3.240;2023-06-26T15:34:15;25.60;89.90
13798;DHT22;6970;51.340;3.240;2023-06-26T15:36:42;25.40;90.20
13798;DHT22;6970;51.340;3.240;2023-06-26T15:39:11;25.30;90.60
13798;DHT22;6970;51.340;3.240;2023-06-26T15:41:41;25.30;90.90
13798;DHT22;6970;51.340;3.240;2023-06-26T15:44:08;25.30;90.70
13798;DHT22;6970;51.340;3.240;2023-06-26T15:46:35;25.20;90.20
13798;DHT22;6970;51.340;3.240;2023-06-26T15:49:03;25.20;90.40
13798;DHT22;6970;51.340;3.240;2023-06-26T15:51:30;25.20;90.50
13798;DHT22;6970;51.340;3.240;2023-06-26T15:53:59;25.20;90.50
13798;DHT22;6970;51.340;3.240;2023-06-26T15:56:27;25.20;90.60
13798;DHT22;6970;51.340;3.240;2023-06-26T15:58:57;25.20;90.70
13798;DHT22;6970;51.340;3.240;2023-06-26T16:01:29;25.20;91.00
13798;DHT22;6970;51.340;3.240;2023-06-26T16:03:56;25.20;91.10
13798;DHT22;6970;51.340;3.240;2023-06-26T16:06:30;25.10;91.00
13798;DHT22;6970;51.340;3.240;2023-06-26T16:08:58;25.00;90.90
13798;DHT22;6970;51.340;3.240;2023-06-26T16:11:26;25.00;91.00
13798;DHT22;6970;51.340;3.240;2023-06-26T16:13:57;25.00;91.20
13798;DHT22;6970;51.340;3.240;2023-06-26T16:16:25;25.00;91.60
13798;DHT22;6970;51.340;3.240;2023-06-26T16:18:53;24.90;92.10
13798;DHT22;6970;51.340;3.240;2023-06-26T16:21:23;24.90;92.50